Time;durP1;ratioP1;P1;durP2;ratioP2;P2;SDS_P1;SDS_P2;PMS_P1;PMS_P2;Temp;Humidity;BMP_temperature;BMP_pressure;BME280_temperature;BME280_humidity;BME280_pressure;Samples;Min_cycle;Max_cycle;Signal;HPM_P1;HPM_P2
2021/12/03 00:00:46;;;;;;;5.77;4.47;;;2.20;99.90;;;;;;5057966;28;20264;-91
2021/12/03 00:03:13;;;;;;;4.80;3.50;;;2.20;99.90;;;;;;5054257;28;20170;-91
2021/12/03 00:05:39;;;;;;;3.83;3.43;;;2.10;99.90;;;;;;5036770;28;20174;-91
2021/12/03 00:08:06;;;;;;;5.83;4.03;;;2.10;99.90;;;;;;5038446;28;20202;-90
2021/12/03 00:10:34;;;;;;;3.87;3.10;;;2.00;99.90;;;;;;5037827;28;20213;-90
2021/12/03 00:13:00;;;;;;;4.10;3.43;;;2.00;99.90;;;;;;5037945;28;20178;-90
2021/12/03 00:15:27;;;;;;;5.03;3.27;;;2.00;99.90;;;;;;5037980;28;20178;-90
2021/12/03 00:17:54;;;;;;;5.07;3.07;;;1.90;99.90;;;;;;5038107;28;20225;-90
2021/12/03 00:20:21;;;;;;;3.63;3.33;;;1.90;99.90;;;;;;5038196;28;20185;-91
2021/12/03 00:22:50;;;;;;;5.13;3.23;;;1.90;99.90;;;;;;5038102;28;20256;-90
2021/12/03 00:25:16;;;;;;;5.43;3.70;;;1.90;99.90;;;;;;5037725;28;20190;-90
2021/12/03 00:27:43;;;;;;;4.73;3.70;;;1.90;99.90;;;;;;5038029;28;20339;-90
2021/12/03 00:30:11;;;;;;;4.27;3.67;;;1.80;99.90;;;;;;5037868;28;20734;-91
2021/12/03 00:32:38;;;;;;;7.37;4.33;;;1.90;99.90;;;;;;5050836;28;20186;-90
2021/12/03 00:35:05;;;;;;;4.73;3.90;;;1.90;99.90;;;;;;5054584;28;20184;-90
2021/12/03 00:37:31;;;;;;;4.17;3.37;;;1.90;99.90;;;;;;5054460;28;20198;-90
2021/12/03 00:39:58;;;;;;;3.87;3.40;;;1.90;99.90;;;;;;5053976;28;20189;-90
2021/12/03 00:42:26;;;;;;;3.97;3.60;;;1.90;99.90;;;;;;5054298;28;20276;-90
2021/12/03 00:44:55;;;;;;;4.67;3.60;;;1.90;99.90;;;;;;5056537;28;20178;-90
2021/12/03 00:47:21;;;;;;;5.97;4.00;;;1.90;99.90;;;;;;5057724;28;20203;-90
2021/12/03 00:49:47;;;;;;;4.37;3.73;;;1.90;99.90;;;;;;5056994;28;20201;-91
2021/12/03 00:52:13;;;;;;;4.70;3.80;;;2.00;99.90;;;;;;5057536;28;20181;-90
2021/12/03 00:54:39;;;;;;;6.67;3.90;;;2.00;99.90;;;;;;5057467;28;20185;-90
2021/12/03 00:57:06;;;;;;;5.40;4.10;;;2.00;99.90;;;;;;5057153;28;20235;-91
2021/12/03 00:59:32;;;;;;;8.47;4.30;;;2.00;99.90;;;;;;5057272;28;20268;-91
2021/12/03 01:01:58;;;;;;;6.50;3.60;;;2.00;99.90;;;;;;5046527;28;20194;-90
2021/12/03 01:04:24;;;;;;;5.73;3.97;;;2.00;99.90;;;;;;5037378;28;20178;-90
2021/12/03 01:06:50;;;;;;;4.90;4.00;;;2.00;99.90;;;;;;5036941;28;20182;-90
2021/12/03 01:09:16;;;;;;;6.50;4.00;;;2.00;99.90;;;;;;5036963;28;20237;-91
2021/12/03 01:11:42;;;;;;;5.40;3.80;;;2.00;99.90;;;;;;5037244;28;20184;-91
2021/12/03 01:14:09;;;;;;;6.00;3.40;;;2.00;99.90;;;;;;5037203;28;20181;-90
2021/12/03 01:16:35;;;;;;;6.73;4.23;;;2.00;99.90;;;;;;5053602;28;20177;-91
2021/12/03 01:19:02;;;;;;;6.43;3.97;;;2.00;99.90;;;;;;5056456;28;20217;-90
2021/12/03 01:21:28;;;;;;;5.23;3.60;;;2.00;99.90;;;;;;5056494;28;20184;-91
2021/12/03 01:23:56;;;;;;;5.03;3.77;;;2.00;99.90;;;;;;5056462;28;20177;-91
2021/12/03 01:26:24;;;;;;;5.43;3.93;;;2.00;99.90;;;;;;5056546;28;20186;-90
2021/12/03 01:28:50;;;;;;;5.07;3.57;;;2.00;99.90;;;;;;5056339;28;20215;-90
2021/12/03 01:31:18;;;;;;;5.37;3.50;;;2.00;99.90;;;;;;5056778;28;20195;-91
2021/12/03 01:33:46;;;;;;;5.07;3.43;;;2.00;99.90;;;;;;5056661;28;20173;-91
2021/12/03 01:36:13;;;;;;;6.77;3.73;;;2.00;99.90;;;;;;5042879;28;20261;-90
2021/12/03 01:38:39;;;;;;;3.80;3.40;;;2.00;99.90;;;;;;5036338;28;20313;-91
2021/12/03 01:41:06;;;;;;;5.47;3.33;;;2.00;99.90;;;;;;5049075;28;20264;-90
2021/12/03 01:43:32;;;;;;;5.17;3.40;;;2.00;99.90;;;;;;5056310;28;20184;-90
2021/12/03 01:46:01;;;;;;;5.37;3.03;;;2.00;99.90;;;;;;5056022;28;20234;-90
2021/12/03 01:48:28;;;;;;;5.30;3.37;;;2.00;99.90;;;;;;5056276;28;20231;-90
2021/12/03 01:50:54;;;;;;;5.40;3.40;;;2.00;99.90;;;;;;5056199;28;20181;-90
2021/12/03 01:53:23;;;;;;;5.47;3.53;;;2.00;99.90;;;;;;5056290;28;20177;-90
2021/12/03 01:55:51;;;;;;;3.70;3.00;;;2.00;99.90;;;;;;5056309;28;20227;-90
2021/12/03 01:58:17;;;;;;;4.77;3.10;;;2.00;99.90;;;;;;5056060;28;20204;-90
2021/12/03 02:00:43;;;;;;;4.73;3.10;;;1.90;99.90;;;;;;5055930;28;20189;-90
2021/12/03 02:03:28;;;;;;;4.83;3.43;;;1.90;99.90;;;;;;5056158;28;20192;-90
2021/12/03 02:05:55;;;;;;;6.00;3.80;;;1.90;99.90;;;;;;5056428;28;20169;-90
2021/12/03 02:08:22;;;;;;;4.57;3.00;;;1.90;99.90;;;;;;5056092;28;20262;-90
2021/12/03 02:10:49;;;;;;;4.57;3.17;;;1.90;99.90;;;;;;5055831;28;20176;-90
2021/12/03 02:13:15;;;;;;;5.23;3.23;;;1.90;99.90;;;;;;5055888;28;20208;-90
2021/12/03 02:15:43;;;;;;;3.23;2.90;;;1.90;99.90;;;;;;5056082;28;20174;-90
2021/12/03 02:18:11;;;;;;;3.87;3.47;;;1.80;99.90;;;;;;5055790;28;20197;-91
2021/12/03 02:20:49;;;;;;;4.23;3.70;;;1.80;99.90;;;;;;5055646;28;20169;-90
2021/12/03 02:23:16;;;;;;;5.27;3.57;;;1.80;99.90;;;;;;5056098;28;20165;-91
2021/12/03 02:25:43;;;;;;;4.63;4.10;;;1.80;99.90;;;;;;5055305;28;20246;-90
2021/12/03 02:28:09;;;;;;;4.90;4.17;;;1.80;99.90;;;;;;5054749;28;20209;-91
2021/12/03 02:30:36;;;;;;;5.53;3.80;;;1.80;99.90;;;;;;5055708;28;20212;-90
2021/12/03 02:33:03;;;;;;;5.00;4.50;;;1.80;99.90;;;;;;5055939;28;20260;-90
2021/12/03 02:35:29;;;;;;;4.50;3.60;;;1.70;99.90;;;;;;5055800;28;20204;-90
2021/12/03 02:37:55;;;;;;;6.37;4.40;;;1.80;99.90;;;;;;5055382;28;20189;-90
2021/12/03 02:40:23;;;;;;;5.47;3.87;;;1.80;99.90;;;;;;5055633;28;20177;-90
2021/12/03 02:42:50;;;;;;;6.13;4.20;;;1.80;99.90;;;;;;5055273;28;20173;-90
2021/12/03 02:45:17;;;;;;;4.30;3.83;;;1.70;99.90;;;;;;5055398;28;20284;-90
2021/12/03 02:47:43;;;;;;;5.20;4.23;;;1.70;99.90;;;;;;5055597;28;20208;-90
2021/12/03 02:50:11;;;;;;;4.90;4.40;;;1.70;99.90;;;;;;5040613;28;20194;-90
2021/12/03 02:52:37;;;;;;;6.17;4.33;;;1.70;99.90;;;;;;5035616;28;20174;-90
2021/12/03 02:55:05;;;;;;;4.33;3.70;;;1.70;99.90;;;;;;5035734;28;20220;-90
2021/12/03 02:57:31;;;;;;;4.83;3.60;;;1.70;99.90;;;;;;5035230;28;20197;-90
2021/12/03 02:59:57;;;;;;;5.40;3.93;;;1.70;99.90;;;;;;5035633;28;20178;-90
2021/12/03 03:02:23;;;;;;;4.73;3.90;;;1.70;99.90;;;;;;5049348;28;20185;-90
2021/12/03 03:04:49;;;;;;;6.60;4.47;;;1.70;99.90;;;;;;5055363;28;20223;-89
2021/12/03 03:07:15;;;;;;;5.70;4.10;;;1.70;99.90;;;;;;5054949;28;20295;-90
2021/12/03 03:09:44;;;;;;;5.53;4.47;;;1.60;99.90;;;;;;5055328;28;20205;-90
2021/12/03 03:12:12;;;;;;;5.93;4.40;;;1.70;99.90;;;;;;5055679;28;20178;-90
2021/12/03 03:14:54;;;;;;;4.73;4.00;;;1.60;99.90;;;;;;5056465;28;20174;-90
2021/12/03 03:17:23;;;;;;;8.00;4.57;;;1.60;99.90;;;;;;5055436;28;20208;-90
2021/12/03 03:19:50;;;;;;;5.27;4.00;;;1.60;99.90;;;;;;5043138;28;20244;-90
2021/12/03 03:22:18;;;;;;;4.53;3.93;;;1.50;99.90;;;;;;5038039;28;20221;-90
2021/12/03 03:24:45;;;;;;;5.63;4.60;;;1.50;99.90;;;;;;5036423;28;20181;-90
2021/12/03 03:27:12;;;;;;;4.40;4.00;;;1.40;99.90;;;;;;5035224;28;20255;-90
2021/12/03 03:29:38;;;;;;;5.70;4.30;;;1.40;99.90;;;;;;5035481;28;20220;-90
2021/12/03 03:32:06;;;;;;;5.03;4.10;;;1.40;99.90;;;;;;5047063;28;20188;-90
2021/12/03 03:34:33;;;;;;;6.43;4.43;;;1.30;99.90;;;;;;5052484;28;20175;-90
2021/12/03 03:37:00;;;;;;;5.23;4.73;;;1.30;99.90;;;;;;5034780;28;20182;-90
2021/12/03 03:39:25;;;;;;;6.77;5.03;;;1.30;99.90;;;;;;5036637;28;20672;-90
2021/12/03 03:41:52;;;;;;;7.07;4.53;;;1.20;99.90;;;;;;5038577;28;20280;-90
2021/12/03 03:44:18;;;;;;;6.07;4.40;;;1.20;99.90;;;;;;5052622;28;20258;-90
2021/12/03 03:46:45;;;;;;;5.03;4.40;;;1.20;99.90;;;;;;5055246;28;20184;-90
2021/12/03 03:49:11;;;;;;;5.00;4.40;;;1.20;99.90;;;;;;5055297;28;20216;-90
2021/12/03 03:51:38;;;;;;;6.07;4.23;;;1.20;99.90;;;;;;5072020;28;20272;-90
2021/12/03 03:54:04;;;;;;;5.40;4.47;;;1.20;99.90;;;;;;5072222;28;20185;-90
2021/12/03 03:57:02;;;;;;;5.53;4.57;;;1.20;99.90;;;;;;5071697;28;20182;-90
2021/12/03 03:59:29;;;;;;;6.23;4.53;;;1.20;99.90;;;;;;5038407;28;20181;-90
2021/12/03 04:01:55;;;;;;;5.30;4.37;;;1.20;99.90;;;;;;5075099;28;20672;-90
2021/12/03 04:04:21;;;;;;;5.93;5.00;;;1.20;99.90;;;;;;5059154;28;20263;-90
2021/12/03 04:06:49;;;;;;;6.83;5.50;;;1.20;99.90;;;;;;5057859;28;20181;-90
2021/12/03 04:09:15;;;;;;;7.20;4.97;;;1.30;99.90;;;;;;5038303;28;20200;-90
2021/12/03 04:11:42;;;;;;;6.60;4.60;;;1.30;99.90;;;;;;5038562;28;20176;-91
2021/12/03 04:14:08;;;;;;;8.27;4.97;;;1.30;99.90;;;;;;5038327;28;20174;-90
2021/12/03 04:16:34;;;;;;;6.80;4.03;;;1.30;99.90;;;;;;5049476;28;20193;-90
2021/12/03 04:19:00;;;;;;;6.43;4.60;;;1.40;99.90;;;;;;5071367;28;20213;-90
2021/12/03 04:21:26;;;;;;;6.03;4.83;;;1.40;99.90;;;;;;5071550;28;20285;-90
2021/12/03 04:23:53;;;;;;;6.10;4.53;;;1.40;99.90;;;;;;5055467;28;20186;-90
2021/12/03 04:26:19;;;;;;;6.73;4.83;;;1.40;99.90;;;;;;5071210;28;20268;-90
2021/12/03 04:28:45;;;;;;;5.53;4.80;;;1.40;99.90;;;;;;5071764;28;20261;-90
2021/12/03 04:31:11;;;;;;;6.43;4.70;;;1.50;99.90;;;;;;5071639;28;20178;-90
2021/12/03 04:33:37;;;;;;;8.07;4.90;;;1.50;99.90;;;;;;5071676;28;20178;-90
2021/12/03 04:36:04;;;;;;;7.90;5.00;;;1.50;99.90;;;;;;5071516;28;20196;-89
2021/12/03 04:38:31;;;;;;;8.10;5.03;;;1.50;99.90;;;;;;5071589;28;20202;-91
2021/12/03 04:40:57;;;;;;;6.07;4.73;;;1.50;99.90;;;;;;5071194;28;20178;-90
2021/12/03 04:43:22;;;;;;;6.97;4.50;;;1.50;99.90;;;;;;5071222;28;20234;-90
2021/12/03 04:45:50;;;;;;;5.77;4.40;;;1.50;99.90;;;;;;5071108;28;20173;-90
2021/12/03 04:48:17;;;;;;;5.43;4.33;;;1.50;99.90;;;;;;5071405;28;20228;-90
2021/12/03 04:50:43;;;;;;;5.60;4.50;;;1.50;99.90;;;;;;5070639;28;20206;-90
2021/12/03 04:53:11;;;;;;;5.20;4.03;;;1.50;99.90;;;;;;5071019;28;20177;-90
2021/12/03 04:55:37;;;;;;;7.67;4.87;;;1.50;99.90;;;;;;5054581;28;20193;-90
2021/12/03 04:58:05;;;;;;;5.47;4.77;;;1.50;99.90;;;;;;5070841;28;20214;-91
2021/12/03 05:00:36;;;;;;;5.37;4.63;;;1.50;99.90;;;;;;5053830;28;20315;-90
2021/12/03 05:03:02;;;;;;;5.87;4.77;;;1.50;99.90;;;;;;5070422;28;20182;-90
2021/12/03 05:05:33;;;;;;;7.50;5.13;;;1.50;99.90;;;;;;5071476;28;20181;-90
2021/12/03 05:08:02;;;;;;;6.37;5.10;;;1.50;99.90;;;;;;5070561;28;20208;-90
2021/12/03 05:10:34;;;;;;;6.90;4.53;;;1.50;99.90;;;;;;5070700;28;20220;-90
2021/12/03 05:13:09;;;;;;;6.90;4.93;;;1.50;99.90;;;;;;5070796;28;20186;-91
2021/12/03 05:15:37;;;;;;;6.33;4.90;;;1.50;99.90;;;;;;5054270;28;20260;-90
2021/12/03 05:18:04;;;;;;;7.07;4.60;;;1.50;99.90;;;;;;5073719;28;20201;-91
2021/12/03 05:20:31;;;;;;;8.80;4.80;;;1.50;99.90;;;;;;5057314;28;20172;-90
2021/12/03 05:22:57;;;;;;;6.97;5.73;;;1.50;99.90;;;;;;5056949;28;20260;-90
2021/12/03 05:25:24;;;;;;;7.17;5.10;;;1.50;99.90;;;;;;5057124;28;20188;-90
2021/12/03 05:27:50;;;;;;;6.70;4.70;;;1.50;99.90;;;;;;5047856;28;20288;-90
2021/12/03 05:30:17;;;;;;;6.63;4.73;;;1.40;99.90;;;;;;5036802;28;20243;-90
2021/12/03 05:32:43;;;;;;;5.63;4.60;;;1.40;99.90;;;;;;5054037;28;20212;-90
2021/12/03 05:35:11;;;;;;;7.57;4.63;;;1.40;99.90;;;;;;5056374;28;20172;-90
2021/12/03 05:37:37;;;;;;;7.63;5.00;;;1.40;99.90;;;;;;5056508;28;20206;-90
2021/12/03 05:40:05;;;;;;;6.53;5.00;;;1.40;99.90;;;;;;5056330;28;20188;-90
2021/12/03 05:42:59;;;;;;;7.53;4.60;;;1.30;99.90;;;;;;5056756;28;20225;-90
2021/12/03 05:45:30;;;;;;;9.00;5.00;;;1.40;99.90;;;;;;5056422;28;20172;-90
2021/12/03 05:47:56;;;;;;;6.27;5.10;;;1.30;99.90;;;;;;5056790;28;20203;-90
2021/12/03 05:50:23;;;;;;;6.97;4.90;;;1.30;99.90;;;;;;5056196;28;20196;-90
2021/12/03 05:52:51;;;;;;;5.83;4.73;;;1.30;99.90;;;;;;5055979;28;20219;-90
2021/12/03 05:55:17;;;;;;;4.53;3.93;;;1.30;99.90;;;;;;5056370;28;20185;-90
2021/12/03 05:57:45;;;;;;;6.90;4.37;;;1.30;99.90;;;;;;5056847;28;20286;-92
2021/12/03 06:00:15;;;;;;;5.07;4.10;;;1.30;99.90;;;;;;5056454;28;20180;-90
2021/12/03 06:02:49;;;;;;;6.57;4.63;;;1.30;99.90;;;;;;5038190;28;20280;-90
2021/12/03 06:05:40;;;;;;;6.27;4.43;;;1.30;99.90;;;;;;5056477;28;20656;-90
2021/12/03 06:08:07;;;;;;;7.83;4.50;;;1.30;99.90;;;;;;5056254;28;20201;-90
2021/12/03 06:10:40;;;;;;;7.87;5.20;;;1.20;99.90;;;;;;5055655;28;20240;-91
2021/12/03 06:13:51;;;;;;;5.90;4.40;;;1.20;99.90;;;;;;5056000;28;20176;-89
2021/12/03 06:16:17;;;;;;;6.67;4.63;;;1.20;99.90;;;;;;5056374;28;20216;-89
2021/12/03 06:18:43;;;;;;;7.77;4.30;;;1.20;99.90;;;;;;5056241;28;20218;-89
2021/12/03 06:21:11;;;;;;;6.77;5.03;;;1.20;99.90;;;;;;5055954;28;20184;-89
2021/12/03 06:23:52;;;;;;;5.97;4.20;;;1.20;99.90;;;;;;5055491;28;20181;-89
2021/12/03 06:26:18;;;;;;;6.20;4.63;;;1.20;99.90;;;;;;5050890;28;20188;-89
2021/12/03 06:28:44;;;;;;;7.53;4.77;;;1.20;99.90;;;;;;5048544;28;20290;-89
2021/12/03 06:31:11;;;;;;;7.03;5.23;;;1.20;99.90;;;;;;5059386;28;20223;-89
2021/12/03 06:33:37;;;;;;;9.53;6.27;;;1.20;99.90;;;;;;5069460;28;20177;-89
2021/12/03 06:36:03;;;;;;;9.60;5.40;;;1.20;99.90;;;;;;5069180;28;20180;-89
2021/12/03 06:38:29;;;;;;;8.97;5.73;;;1.20;99.90;;;;;;5069256;28;20201;-88
2021/12/03 06:40:55;;;;;;;5.80;4.70;;;1.20;99.90;;;;;;5069644;28;20194;-89
2021/12/03 06:43:22;;;;;;;7.87;5.70;;;1.20;99.90;;;;;;5068824;28;20176;-90
2021/12/03 06:45:54;;;;;;;9.47;6.17;;;1.20;99.90;;;;;;5072966;28;20243;-90
2021/12/03 06:48:21;;;;;;;7.87;5.70;;;1.20;99.90;;;;;;5055088;28;20243;-89
2021/12/03 06:50:50;;;;;;;7.17;4.90;;;1.20;99.90;;;;;;5055969;28;20295;-89
2021/12/03 06:53:20;;;;;;;7.53;5.20;;;1.20;99.90;;;;;;5056406;28;20184;-90
2021/12/03 06:58:16;;;;;;;7.57;5.10;;;1.10;99.90;;;;;;5072374;28;20225;-90
2021/12/03 07:00:43;;;;;;;8.07;5.50;;;1.10;99.90;;;;;;5056137;28;20188;-90
2021/12/03 07:03:09;;;;;;;9.50;5.30;;;1.10;99.90;;;;;;5056341;28;20184;-90
2021/12/03 07:05:36;;;;;;;8.57;5.87;;;1.10;99.90;;;;;;5056182;28;20190;-90
2021/12/03 07:08:02;;;;;;;8.63;6.30;;;1.10;99.90;;;;;;5056154;28;20188;-90
2021/12/03 07:10:28;;;;;;;6.90;5.77;;;1.10;99.90;;;;;;5055560;28;20238;-90
2021/12/03 07:12:54;;;;;;;8.30;5.03;;;1.10;99.90;;;;;;5055712;28;20260;-84
2021/12/03 07:15:20;;;;;;;9.07;5.50;;;1.10;99.90;;;;;;5058823;28;20259;-89
2021/12/03 07:17:50;;;;;;;12.70;7.00;;;1.10;99.90;;;;;;5059347;28;20197;-89
2021/12/03 07:20:16;;;;;;;15.67;9.73;;;1.20;99.90;;;;;;5059148;28;20264;-89
2021/12/03 07:22:42;;;;;;;9.33;6.83;;;1.20;99.90;;;;;;5059060;28;20187;-89
2021/12/03 07:25:10;;;;;;;8.17;5.83;;;1.20;99.90;;;;;;5059188;28;20176;-89
2021/12/03 07:27:36;;;;;;;19.10;12.00;;;1.20;99.90;;;;;;5059508;28;20250;-89
2021/12/03 07:30:04;;;;;;;18.93;12.07;;;1.20;99.90;;;;;;5058655;28;20212;-89
2021/12/03 07:32:30;;;;;;;24.13;13.90;;;1.20;99.90;;;;;;5059224;28;20176;-89
2021/12/03 07:34:57;;;;;;;9.70;6.60;;;1.20;99.90;;;;;;5058929;28;20184;-89
2021/12/03 07:37:23;;;;;;;9.37;6.17;;;1.30;99.90;;;;;;5058767;28;20228;-89
2021/12/03 07:39:49;;;;;;;7.77;5.73;;;1.30;99.90;;;;;;5058769;28;20188;-89
2021/12/03 07:42:15;;;;;;;7.57;5.50;;;1.30;99.90;;;;;;5059132;28;20241;-89
2021/12/03 07:44:42;;;;;;;9.30;5.10;;;1.30;99.90;;;;;;5058986;28;20199;-89
2021/12/03 07:47:08;;;;;;;10.30;6.33;;;1.30;99.90;;;;;;5058709;28;20197;-89
2021/12/03 07:49:35;;;;;;;6.70;4.83;;;1.30;99.90;;;;;;5058581;28;20211;-89
2021/12/03 07:52:01;;;;;;;6.80;5.57;;;1.40;99.90;;;;;;5059301;28;20172;-89
2021/12/03 07:54:27;;;;;;;6.30;4.40;;;1.40;99.90;;;;;;5058703;28;20207;-89
2021/12/03 07:56:53;;;;;;;5.20;3.83;;;1.40;99.90;;;;;;5058863;28;20177;-89
2021/12/03 07:59:19;;;;;;;7.40;4.17;;;1.40;99.90;;;;;;5058471;28;20184;-89
2021/12/03 08:01:46;;;;;;;5.03;3.47;;;1.40;99.90;;;;;;5049951;28;20186;-89
2021/12/03 08:04:13;;;;;;;4.73;3.57;;;1.40;99.90;;;;;;5039068;28;20323;-89
2021/12/03 08:06:40;;;;;;;4.63;3.60;;;1.40;99.90;;;;;;5039124;28;20185;-89
2021/12/03 08:09:07;;;;;;;4.70;3.97;;;1.40;99.90;;;;;;5038645;28;20307;-89
2021/12/03 08:11:34;;;;;;;6.40;4.10;;;1.50;99.90;;;;;;5039397;28;20242;-89
2021/12/03 08:14:00;;;;;;;5.53;3.90;;;1.50;99.90;;;;;;5051166;28;20180;-90
2021/12/03 08:16:26;;;;;;;7.13;5.40;;;1.50;99.90;;;;;;5058691;28;20637;-89
2021/12/03 08:18:52;;;;;;;10.10;6.33;;;1.60;99.90;;;;;;5058202;28;20211;-89
2021/12/03 08:21:18;;;;;;;12.03;6.53;;;1.60;99.90;;;;;;5058904;28;20206;-90
2021/12/03 08:23:44;;;;;;;7.40;5.00;;;1.70;99.90;;;;;;5058281;28;20185;-89
2021/12/03 08:26:29;;;;;;;6.40;4.43;;;1.70;99.90;;;;;;5057190;28;20254;-89
2021/12/03 08:28:55;;;;;;;6.33;4.70;;;1.80;99.90;;;;;;5058668;28;20216;-90
2021/12/03 08:31:21;;;;;;;4.87;3.93;;;1.90;99.90;;;;;;5052475;28;20253;-89
2021/12/03 08:33:48;;;;;;;4.50;3.87;;;1.90;99.90;;;;;;5037803;28;20487;-90
2021/12/03 08:36:15;;;;;;;4.57;3.80;;;2.00;99.90;;;;;;5038207;28;20186;-90
2021/12/03 08:38:42;;;;;;;5.87;4.33;;;2.00;99.90;;;;;;5037596;28;20229;-90
2021/12/03 08:41:09;;;;;;;5.50;4.00;;;2.00;99.90;;;;;;5038067;28;20186;-89
2021/12/03 08:43:35;;;;;;;4.57;3.80;;;2.10;99.90;;;;;;5037973;28;20217;-89
2021/12/03 08:46:09;;;;;;;4.87;3.87;;;2.10;99.90;;;;;;5038190;28;20213;-89
2021/12/03 08:48:38;;;;;;;5.37;3.80;;;2.20;99.90;;;;;;5037914;28;20202;-89
2021/12/03 08:56:24;;;;;;;10.03;5.53;;;2.20;99.90;;;;;;5054176;28;20177;-89
2021/12/03 08:58:50;;;;;;;6.97;3.73;;;2.20;99.90;;;;;;5037406;28;20212;-90
2021/12/03 09:01:16;;;;;;;5.27;3.80;;;2.20;99.90;;;;;;5040702;28;20189;-89
2021/12/03 09:03:42;;;;;;;4.27;3.53;;;2.20;99.90;;;;;;5057164;28;20173;-89
2021/12/03 09:06:08;;;;;;;7.13;4.53;;;2.30;99.90;;;;;;5057307;28;20188;-89
2021/12/03 09:08:34;;;;;;;5.03;3.80;;;2.30;99.90;;;;;;5056666;28;20239;-89
2021/12/03 09:11:00;;;;;;;7.10;4.70;;;2.40;99.90;;;;;;5057157;28;20232;-89
2021/12/03 09:13:26;;;;;;;7.97;4.67;;;2.40;99.90;;;;;;5058389;28;20169;-89
2021/12/03 09:16:05;;;;;;;7.57;4.00;;;2.40;99.90;;;;;;5056517;28;20185;-90
2021/12/03 09:18:39;;;;;;;5.93;3.77;;;2.50;99.90;;;;;;5056937;28;20212;-89
2021/12/03 09:26:11;;;;;;;4.10;3.20;;;2.70;99.90;;;;;;5073430;28;20173;-89
2021/12/03 09:28:40;;;;;;;6.27;3.37;;;2.70;99.90;;;;;;5056791;28;20220;-89
2021/12/03 09:31:09;;;;;;;5.40;3.80;;;2.80;99.90;;;;;;5057209;28;20178;-89
2021/12/03 09:33:36;;;;;;;5.83;3.93;;;2.80;99.90;;;;;;5057172;28;20257;-90
2021/12/03 09:36:04;;;;;;;4.87;3.17;;;2.80;99.90;;;;;;5057058;28;20177;-90
2021/12/03 09:38:33;;;;;;;4.70;3.13;;;2.70;99.90;;;;;;5056720;28;20201;-89
2021/12/03 09:41:08;;;;;;;4.00;2.90;;;2.70;99.90;;;;;;5042098;28;20181;-89
2021/12/03 09:43:36;;;;;;;4.90;3.17;;;2.70;99.90;;;;;;5037293;28;20263;-89
2021/12/03 09:46:11;;;;;;;4.37;2.70;;;2.80;99.90;;;;;;5036887;28;20177;-89
2021/12/03 09:49:03;;;;;;;4.20;2.80;;;2.80;99.90;;;;;;5036201;28;20212;-89
2021/12/03 09:52:28;;;;;;;6.63;2.80;;;2.80;99.90;;;;;;5036522;28;20177;-89
2021/12/03 09:54:32;;;;;;;4.00;3.00;;;2.70;99.90;;;;;;5042514;28;20182;-89
2021/12/03 09:57:04;;;;;;;6.53;4.00;;;2.60;99.90;;;;;;5037021;28;20174;-89
2021/12/03 10:16:59;;;;;;;5.00;3.13;;;2.80;99.90;;;;;;5059839;28;20179;-90
2021/12/03 10:19:36;;;;;;;6.57;3.87;;;2.80;99.90;;;;;;5072062;28;20192;-89
2021/12/03 10:22:21;;;;;;;3.90;3.40;;;2.80;99.90;;;;;;5055941;28;20164;-89
2021/12/03 10:25:08;;;;;;;4.97;3.57;;;2.70;99.90;;;;;;5055344;28;20213;-89
2021/12/03 10:28:08;;;;;;;5.97;3.83;;;2.60;99.90;;;;;;5055910;28;20197;-90
2021/12/03 10:36:29;;;;;;;4.47;3.23;;;2.80;99.90;;;;;;5058351;28;20165;-90
2021/12/03 10:46:43;;;;;;;8.53;3.60;;;3.30;99.90;;;;;;5072133;28;20172;-90
2021/12/03 10:55:24;;;;;;;6.77;3.87;;;3.40;99.90;;;;;;5101621;28;20166;-90
2021/12/03 11:14:21;;;;;;;7.27;3.57;;;4.00;99.90;;;;;;5075823;28;20170;-90
2021/12/03 12:19:41;;;;;;;4.07;2.70;;;4.20;99.90;;;;;;5054005;28;20711;-86
2021/12/03 13:17:18;;;;;;;8.63;2.40;;;4.90;99.90;;;;;;5072757;28;20179;-90
2021/12/03 14:50:04;;;;;;;5.37;3.30;;;3.90;99.90;;;;;;5072308;28;20201;-89
2021/12/03 14:56:22;;;;;;;7.90;4.00;;;3.90;99.90;;;;;;5072568;28;20239;-91
2021/12/03 14:59:14;;;;;;;9.27;4.93;;;3.80;99.90;;;;;;5044429;28;20212;-90
2021/12/03 15:09:37;;;;;;;5.00;3.83;;;3.60;99.90;;;;;;5068200;28;20217;-90
2021/12/03 15:20:48;;;;;;;8.67;4.37;;;3.40;99.90;;;;;;5058944;28;20186;-90
2021/12/03 15:23:23;;;;;;;9.17;5.10;;;3.40;99.90;;;;;;5062903;28;20185;-90
2021/12/03 15:26:17;;;;;;;8.30;4.60;;;3.30;99.90;;;;;;5042524;28;20185;-90
2021/12/03 15:37:08;;;;;;;3.87;3.20;;;3.30;99.90;;;;;;5044845;28;20193;-89
2021/12/03 16:04:39;;;;;;;4.80;2.97;;;3.10;99.90;;;;;;5074966;28;20193;-90
2021/12/03 16:12:44;;;;;;;8.07;3.83;;;3.00;99.90;;;;;;5067719;28;20176;-89
2021/12/03 16:16:49;;;;;;;11.47;7.23;;;3.10;99.90;;;;;;5054431;28;20174;-89
2021/12/03 16:23:47;;;;;;;11.37;6.17;;;3.00;99.90;;;;;;5069180;28;20275;-89
2021/12/03 16:26:17;;;;;;;39.97;16.23;;;3.00;99.90;;;;;;5055378;28;20193;-89
2021/12/03 16:53:29;;;;;;;8.87;3.70;;;2.80;99.90;;;;;;5063119;28;20249;-89
2021/12/03 16:58:41;;;;;;;6.97;3.23;;;2.80;99.90;;;;;;5066338;28;20205;-89
2021/12/03 17:01:27;;;;;;;5.63;2.90;;;2.80;99.90;;;;;;5041477;28;20181;-87
2021/12/03 17:03:59;;;;;;;7.47;3.83;;;2.80;99.90;;;;;;5052369;28;20169;-88
2021/12/03 17:46:14;;;;;;;4.50;3.20;;;2.70;99.90;;;;;;5073170;28;20255;-89
2021/12/03 17:56:40;;;;;;;6.93;4.63;;;2.70;99.90;;;;;;5073009;28;20177;-89
2021/12/03 18:01:47;;;;;;;5.83;4.27;;;2.60;99.90;;;;;;5073220;28;20246;-89
2021/12/03 18:04:24;;;;;;;6.80;4.80;;;2.60;99.90;;;;;;5056204;28;20170;-89
2021/12/03 18:15:18;;;;;;;7.50;4.97;;;2.60;99.90;;;;;;5052831;28;20223;-89
2021/12/03 18:18:35;;;;;;;5.47;4.33;;;2.50;99.90;;;;;;5068985;28;20201;-89
2021/12/03 18:49:57;;;;;;;8.10;5.00;;;2.70;99.90;;;;;;5053689;28;20239;-89
2021/12/03 18:57:59;;;;;;;4.67;3.93;;;2.70;99.90;;;;;;5072263;28;20193;-89
2021/12/03 19:00:28;;;;;;;5.27;4.07;;;2.70;99.90;;;;;;5055757;28;20535;-90
2021/12/03 19:02:57;;;;;;;6.80;4.90;;;2.70;99.90;;;;;;5037131;28;20192;-89
2021/12/03 19:10:26;;;;;;;7.93;4.00;;;2.80;99.90;;;;;;5074073;28;20198;-89
2021/12/03 19:12:58;;;;;;;7.50;4.60;;;2.80;99.90;;;;;;5044871;28;20204;-88
2021/12/03 19:15:25;;;;;;;5.40;3.93;;;2.80;99.90;;;;;;5050491;28;20169;-89
2021/12/03 19:17:51;;;;;;;3.90;3.53;;;2.80;99.90;;;;;;5058264;28;20208;-90
2021/12/03 19:20:29;;;;;;;4.73;3.73;;;2.80;99.90;;;;;;5039439;28;20193;-90
2021/12/03 19:23:00;;;;;;;5.33;3.90;;;2.90;99.90;;;;;;5074109;28;20177;-90
2021/12/03 19:25:27;;;;;;;4.30;3.73;;;2.90;99.90;;;;;;5058929;28;20189;-88
2021/12/03 19:27:52;;;;;;;5.17;3.57;;;2.90;99.90;;;;;;5061850;28;20198;-89
2021/12/03 19:30:18;;;;;;;5.77;3.63;;;2.90;99.90;;;;;;5045274;28;20215;-88
2021/12/03 19:32:44;;;;;;;7.80;3.97;;;2.90;99.90;;;;;;5052428;28;20258;-88
2021/12/03 19:35:10;;;;;;;6.10;4.70;;;2.90;99.90;;;;;;5060736;28;20183;-88
2021/12/03 19:37:37;;;;;;;8.17;4.27;;;2.90;99.90;;;;;;5058966;28;20189;-88
2021/12/03 19:40:08;;;;;;;6.23;3.67;;;2.90;99.90;;;;;;5053347;28;20243;-89
2021/12/03 19:42:53;;;;;;;5.67;3.20;;;2.90;99.90;;;;;;5042760;28;20227;-89
2021/12/03 19:45:21;;;;;;;6.77;3.83;;;2.90;99.90;;;;;;5058627;28;20199;-89
2021/12/03 19:48:03;;;;;;;4.63;3.57;;;2.90;99.90;;;;;;5058210;28;20197;-88
2021/12/03 19:53:13;;;;;;;5.60;3.63;;;2.90;99.90;;;;;;5075157;28;20188;-89
2021/12/03 19:55:40;;;;;;;5.43;3.90;;;2.90;99.90;;;;;;5056125;28;20178;-88
2021/12/03 19:58:08;;;;;;;7.10;3.83;;;2.90;99.90;;;;;;5058250;28;20236;-89
2021/12/03 20:00:36;;;;;;;6.30;3.83;;;2.90;99.90;;;;;;5061541;28;20197;-89
2021/12/03 20:03:02;;;;;;;6.00;4.23;;;2.90;99.90;;;;;;5068413;28;20198;-89
2021/12/03 20:05:28;;;;;;;6.90;4.27;;;2.90;99.90;;;;;;5054310;28;20189;-89
2021/12/03 20:07:55;;;;;;;5.30;3.70;;;2.90;99.90;;;;;;5044088;28;20213;-88
2021/12/03 20:10:24;;;;;;;5.97;4.20;;;2.90;99.90;;;;;;5057629;28;20201;-88
2021/12/03 20:12:51;;;;;;;5.60;3.97;;;2.90;99.90;;;;;;5063270;28;20178;-88
2021/12/03 20:15:31;;;;;;;6.13;4.40;;;2.90;99.90;;;;;;5052998;28;20189;-89
2021/12/03 20:18:12;;;;;;;7.43;4.40;;;2.90;99.90;;;;;;5071024;28;20197;-89
2021/12/03 20:20:41;;;;;;;6.57;4.33;;;2.90;99.90;;;;;;5057393;28;20197;-88
2021/12/03 20:23:22;;;;;;;5.20;4.50;;;2.80;99.90;;;;;;5067675;28;20173;-89
2021/12/03 20:28:21;;;;;;;3.73;3.20;;;2.80;99.90;;;;;;5054531;28;20209;-89
2021/12/03 20:30:49;;;;;;;7.03;4.63;;;2.80;99.90;;;;;;5055649;28;20194;-89
2021/12/03 20:38:52;;;;;;;7.77;3.43;;;2.90;99.90;;;;;;5034207;28;20209;-89
2021/12/03 20:41:29;;;;;;;7.57;4.90;;;2.90;99.90;;;;;;5057813;28;20169;-89
2021/12/03 20:49:15;;;;;;;4.27;3.03;;;2.90;99.90;;;;;;5073720;28;20300;-89
2021/12/03 20:54:19;;;;;;;5.13;3.07;;;3.00;99.90;;;;;;5073846;28;20173;-89
2021/12/03 20:59:41;;;;;;;4.07;3.00;;;3.00;99.90;;;;;;5073697;28;20169;-89
2021/12/03 21:21:20;;;;;;;6.27;3.53;;;3.10;99.90;;;;;;5053747;28;20185;-89
2021/12/03 21:23:47;;;;;;;4.40;3.23;;;3.10;99.90;;;;;;5053258;28;20209;-89
2021/12/03 21:26:20;;;;;;;4.00;3.43;;;3.10;99.90;;;;;;5053708;28;20197;-89
2021/12/03 21:31:24;;;;;;;9.13;5.13;;;3.10;99.90;;;;;;5068104;28;20263;-89
2021/12/03 21:39:38;;;;;;;5.77;3.37;;;3.10;99.90;;;;;;5068364;28;20191;-89